sensor_id;sensor_type;location;lat;lon;timestamp;P1;durP1;ratioP1;P2;durP2;ratioP2
48002;SDS011;33768;48.578;11.574;2022-12-18T00:00:50;61.15;;;24.35;;
48002;SDS011;33768;48.578;11.574;2022-12-18T00:03:55;57.72;;;24.50;;
48002;SDS011;33768;48.578;11.574;2022-12-18T00:07:00;62.58;;;25.38;;
48002;SDS011;33768;48.578;11.574;2022-12-18T00:10:06;71.18;;;26.20;;
48002;SDS011;33768;48.578;11.574;2022-12-18T00:13:11;73.72;;;27.25;;
48002;SDS011;33768;48.578;11.574;2022-12-18T00:16:17;71.90;;;26.70;;
48002;SDS011;33768;48.578;11.574;2022-12-18T00:19:24;72.30;;;26.90;;
48002;SDS011;33768;48.578;11.574;2022-12-18T00:22:28;62.45;;;25.77;;
48002;SDS011;33768;48.578;11.574;2022-12-18T00:25:33;63.28;;;25.40;;
48002;SDS011;33768;48.578;11.574;2022-12-18T00:28:38;65.05;;;25.65;;
48002;SDS011;33768;48.578;11.574;2022-12-18T00:31:42;63.05;;;23.70;;
48002;SDS011;33768;48.578;11.574;2022-12-18T00:34:46;71.22;;;26.77;;
48002;SDS011;33768;48.578;11.574;2022-12-18T00:37:53;65.63;;;25.50;;
48002;SDS011;33768;48.578;11.574;2022-12-18T00:40:57;62.92;;;26.05;;
48002;SDS011;33768;48.578;11.574;2022-12-18T00:44:01;68.70;;;27.00;;
48002;SDS011;33768;48.578;11.574;2022-12-18T00:47:06;64.95;;;25.55;;
48002;SDS011;33768;48.578;11.574;2022-12-18T00:50:10;74.05;;;26.90;;
48002;SDS011;33768;48.578;11.574;2022-12-18T00:53:15;71.10;;;26.35;;
48002;SDS011;33768;48.578;11.574;2022-12-18T00:56:20;67.20;;;26.20;;
48002;SDS011;33768;48.578;11.574;2022-12-18T00:59:24;67.60;;;26.80;;
48002;SDS011;33768;48.578;11.574;2022-12-18T01:02:28;62.83;;;25.70;;
48002;SDS011;33768;48.578;11.574;2022-12-18T01:05:32;62.80;;;26.15;;
48002;SDS011;33768;48.578;11.574;2022-12-18T01:08:37;67.78;;;24.77;;
48002;SDS011;33768;48.578;11.574;2022-12-18T01:11:41;59.03;;;22.97;;
48002;SDS011;33768;48.578;11.574;2022-12-18T01:14:47;61.10;;;22.93;;
48002;SDS011;33768;48.578;11.574;2022-12-18T01:17:52;55.73;;;22.03;;
48002;SDS011;33768;48.578;11.574;2022-12-18T01:20:56;53.20;;;22.10;;
48002;SDS011;33768;48.578;11.574;2022-12-18T01:24:01;52.73;;;21.60;;
48002;SDS011;33768;48.578;11.574;2022-12-18T01:27:05;53.70;;;21.10;;
48002;SDS011;33768;48.578;11.574;2022-12-18T01:30:09;63.93;;;21.63;;
48002;SDS011;33768;48.578;11.574;2022-12-18T01:33:14;56.38;;;22.02;;
48002;SDS011;33768;48.578;11.574;2022-12-18T01:36:19;57.83;;;23.00;;
48002;SDS011;33768;48.578;11.574;2022-12-18T01:39:25;48.77;;;20.03;;
48002;SDS011;33768;48.578;11.574;2022-12-18T01:42:29;55.67;;;20.30;;
48002;SDS011;33768;48.578;11.574;2022-12-18T01:45:33;56.13;;;20.17;;
48002;SDS011;33768;48.578;11.574;2022-12-18T01:48:38;42.83;;;17.80;;
48002;SDS011;33768;48.578;11.574;2022-12-18T01:51:43;47.87;;;19.80;;
48002;SDS011;33768;48.578;11.574;2022-12-18T01:54:48;45.00;;;17.93;;
48002;SDS011;33768;48.578;11.574;2022-12-18T01:57:56;47.83;;;18.43;;
48002;SDS011;33768;48.578;11.574;2022-12-18T02:01:03;45.13;;;17.13;;
48002;SDS011;33768;48.578;11.574;2022-12-18T02:04:28;42.47;;;17.30;;
48002;SDS011;33768;48.578;11.574;2022-12-18T02:17:57;33.15;;;15.30;;
48002;SDS011;33768;48.578;11.574;2022-12-18T02:28:03;41.30;;;17.10;;
48002;SDS011;33768;48.578;11.574;2022-12-18T02:31:11;42.15;;;16.02;;
48002;SDS011;33768;48.578;11.574;2022-12-18T02:34:20;48.15;;;16.77;;
48002;SDS011;33768;48.578;11.574;2022-12-18T02:37:29;47.92;;;18.15;;
48002;SDS011;33768;48.578;11.574;2022-12-18T02:40:37;44.30;;;17.27;;
48002;SDS011;33768;48.578;11.574;2022-12-18T02:43:48;46.28;;;16.33;;
48002;SDS011;33768;48.578;11.574;2022-12-18T02:46:56;48.28;;;17.40;;
48002;SDS011;33768;48.578;11.574;2022-12-18T02:53:36;43.97;;;18.23;;
48002;SDS011;33768;48.578;11.574;2022-12-18T02:56:49;41.88;;;16.77;;
48002;SDS011;33768;48.578;11.574;2022-12-18T03:00:01;39.70;;;15.63;;
48002;SDS011;33768;48.578;11.574;2022-12-18T03:03:14;47.50;;;17.85;;
48002;SDS011;33768;48.578;11.574;2022-12-18T03:09:37;42.97;;;16.63;;
48002;SDS011;33768;48.578;11.574;2022-12-18T03:12:51;40.97;;;17.33;;
48002;SDS011;33768;48.578;11.574;2022-12-18T03:15:59;43.13;;;17.30;;
48002;SDS011;33768;48.578;11.574;2022-12-18T03:19:11;44.50;;;17.60;;
48002;SDS011;33768;48.578;11.574;2022-12-18T03:22:20;41.90;;;16.77;;
48002;SDS011;33768;48.578;11.574;2022-12-18T03:25:29;37.40;;;16.83;;
48002;SDS011;33768;48.578;11.574;2022-12-18T03:28:37;45.43;;;16.20;;
48002;SDS011;33768;48.578;11.574;2022-12-18T03:31:47;39.97;;;16.00;;
48002;SDS011;33768;48.578;11.574;2022-12-18T03:34:58;39.57;;;16.67;;
48002;SDS011;33768;48.578;11.574;2022-12-18T03:38:09;40.13;;;17.63;;
48002;SDS011;33768;48.578;11.574;2022-12-18T03:41:25;38.10;;;16.67;;
48002;SDS011;33768;48.578;11.574;2022-12-18T03:44:57;41.43;;;16.77;;
48002;SDS011;33768;48.578;11.574;2022-12-18T03:48:28;41.80;;;16.20;;
48002;SDS011;33768;48.578;11.574;2022-12-18T03:54:54;38.97;;;15.87;;
48002;SDS011;33768;48.578;11.574;2022-12-18T03:58:01;48.47;;;17.10;;
48002;SDS011;33768;48.578;11.574;2022-12-18T04:01:19;40.13;;;17.20;;
48002;SDS011;33768;48.578;11.574;2022-12-18T04:04:27;45.10;;;17.47;;
48002;SDS011;33768;48.578;11.574;2022-12-18T04:07:32;43.20;;;16.80;;
48002;SDS011;33768;48.578;11.574;2022-12-18T04:10:38;43.03;;;17.27;;
48002;SDS011;33768;48.578;11.574;2022-12-18T04:13:43;47.57;;;17.57;;
48002;SDS011;33768;48.578;11.574;2022-12-18T04:16:54;40.90;;;16.50;;
48002;SDS011;33768;48.578;11.574;2022-12-18T04:20:05;38.17;;;16.70;;
48002;SDS011;33768;48.578;11.574;2022-12-18T04:23:10;44.90;;;18.17;;
48002;SDS011;33768;48.578;11.574;2022-12-18T04:26:15;47.27;;;19.13;;
48002;SDS011;33768;48.578;11.574;2022-12-18T04:29:28;41.90;;;17.27;;
48002;SDS011;33768;48.578;11.574;2022-12-18T04:32:33;46.27;;;18.07;;
48002;SDS011;33768;48.578;11.574;2022-12-18T04:35:39;45.03;;;19.53;;
48002;SDS011;33768;48.578;11.574;2022-12-18T04:38:45;47.60;;;17.43;;
48002;SDS011;33768;48.578;11.574;2022-12-18T04:41:53;42.23;;;16.97;;
48002;SDS011;33768;48.578;11.574;2022-12-18T04:44:57;41.53;;;16.10;;
48002;SDS011;33768;48.578;11.574;2022-12-18T04:48:01;40.73;;;17.73;;
48002;SDS011;33768;48.578;11.574;2022-12-18T04:51:06;45.93;;;18.10;;
48002;SDS011;33768;48.578;11.574;2022-12-18T04:54:11;44.83;;;18.23;;
48002;SDS011;33768;48.578;11.574;2022-12-18T04:57:15;43.13;;;18.50;;
48002;SDS011;33768;48.578;11.574;2022-12-18T05:00:19;39.23;;;17.27;;
48002;SDS011;33768;48.578;11.574;2022-12-18T05:03:24;41.53;;;17.90;;
48002;SDS011;33768;48.578;11.574;2022-12-18T05:06:28;43.93;;;17.80;;
48002;SDS011;33768;48.578;11.574;2022-12-18T05:09:32;44.93;;;17.20;;
48002;SDS011;33768;48.578;11.574;2022-12-18T05:12:36;42.43;;;17.30;;
48002;SDS011;33768;48.578;11.574;2022-12-18T05:16:01;43.07;;;18.57;;
48002;SDS011;33768;48.578;11.574;2022-12-18T05:19:06;46.90;;;19.47;;
48002;SDS011;33768;48.578;11.574;2022-12-18T05:22:10;45.03;;;17.90;;
48002;SDS011;33768;48.578;11.574;2022-12-18T05:25:15;41.80;;;17.00;;
48002;SDS011;33768;48.578;11.574;2022-12-18T05:28:20;36.67;;;14.80;;
48002;SDS011;33768;48.578;11.574;2022-12-18T05:31:25;37.57;;;15.87;;
48002;SDS011;33768;48.578;11.574;2022-12-18T05:34:29;41.23;;;15.60;;
48002;SDS011;33768;48.578;11.574;2022-12-18T05:37:33;39.13;;;16.17;;
48002;SDS011;33768;48.578;11.574;2022-12-18T05:40:40;35.43;;;16.20;;
48002;SDS011;33768;48.578;11.574;2022-12-18T05:43:46;41.07;;;16.67;;
48002;SDS011;33768;48.578;11.574;2022-12-18T05:46:50;42.23;;;16.83;;
48002;SDS011;33768;48.578;11.574;2022-12-18T05:49:54;38.00;;;16.43;;
48002;SDS011;33768;48.578;11.574;2022-12-18T05:52:59;47.60;;;17.50;;
48002;SDS011;33768;48.578;11.574;2022-12-18T05:56:03;42.47;;;17.87;;
48002;SDS011;33768;48.578;11.574;2022-12-18T05:59:10;39.97;;;17.30;;
48002;SDS011;33768;48.578;11.574;2022-12-18T06:02:14;41.20;;;15.90;;
48002;SDS011;33768;48.578;11.574;2022-12-18T06:05:18;38.60;;;17.07;;
48002;SDS011;33768;48.578;11.574;2022-12-18T06:08:22;39.87;;;16.23;;
48002;SDS011;33768;48.578;11.574;2022-12-18T06:11:26;37.63;;;16.30;;
48002;SDS011;33768;48.578;11.574;2022-12-18T06:14:31;37.70;;;16.40;;
48002;SDS011;33768;48.578;11.574;2022-12-18T06:17:35;40.43;;;16.30;;
48002;SDS011;33768;48.578;11.574;2022-12-18T06:20:39;49.27;;;18.57;;
48002;SDS011;33768;48.578;11.574;2022-12-18T06:23:45;45.00;;;17.87;;
48002;SDS011;33768;48.578;11.574;2022-12-18T06:26:49;41.73;;;16.20;;
48002;SDS011;33768;48.578;11.574;2022-12-18T06:29:53;42.23;;;17.97;;
48002;SDS011;33768;48.578;11.574;2022-12-18T06:32:57;37.40;;;15.50;;
48002;SDS011;33768;48.578;11.574;2022-12-18T06:36:02;36.83;;;15.90;;
48002;SDS011;33768;48.578;11.574;2022-12-18T06:39:14;37.07;;;15.10;;
48002;SDS011;33768;48.578;11.574;2022-12-18T06:42:18;35.03;;;14.83;;
48002;SDS011;33768;48.578;11.574;2022-12-18T06:45:22;39.60;;;16.77;;
48002;SDS011;33768;48.578;11.574;2022-12-18T06:48:26;36.60;;;16.90;;
48002;SDS011;33768;48.578;11.574;2022-12-18T06:51:31;33.50;;;15.80;;
48002;SDS011;33768;48.578;11.574;2022-12-18T06:54:35;40.17;;;16.30;;
48002;SDS011;33768;48.578;11.574;2022-12-18T06:57:39;34.40;;;15.27;;
48002;SDS011;33768;48.578;11.574;2022-12-18T07:00:43;42.40;;;17.80;;
48002;SDS011;33768;48.578;11.574;2022-12-18T07:03:51;49.77;;;20.17;;
48002;SDS011;33768;48.578;11.574;2022-12-18T07:06:57;46.90;;;22.20;;
48002;SDS011;33768;48.578;11.574;2022-12-18T07:10:02;42.73;;;16.67;;
48002;SDS011;33768;48.578;11.574;2022-12-18T07:13:06;48.10;;;18.60;;
48002;SDS011;33768;48.578;11.574;2022-12-18T07:16:11;37.17;;;16.80;;
48002;SDS011;33768;48.578;11.574;2022-12-18T07:19:21;35.43;;;16.07;;
48002;SDS011;33768;48.578;11.574;2022-12-18T07:22:25;31.13;;;14.80;;
48002;SDS011;33768;48.578;11.574;2022-12-18T07:25:29;35.70;;;15.37;;
48002;SDS011;33768;48.578;11.574;2022-12-18T07:28:34;34.37;;;16.57;;
48002;SDS011;33768;48.578;11.574;2022-12-18T07:31:39;37.00;;;16.90;;
48002;SDS011;33768;48.578;11.574;2022-12-18T07:34:43;33.93;;;15.93;;
48002;SDS011;33768;48.578;11.574;2022-12-18T07:37:47;41.37;;;17.80;;
48002;SDS011;33768;48.578;11.574;2022-12-18T07:40:51;39.13;;;18.70;;
48002;SDS011;33768;48.578;11.574;2022-12-18T07:43:55;43.23;;;17.73;;
48002;SDS011;33768;48.578;11.574;2022-12-18T07:47:00;39.20;;;18.10;;
48002;SDS011;33768;48.578;11.574;2022-12-18T07:50:04;35.63;;;16.23;;
48002;SDS011;33768;48.578;11.574;2022-12-18T07:53:08;35.67;;;15.17;;
48002;SDS011;33768;48.578;11.574;2022-12-18T07:56:12;36.13;;;14.80;;
48002;SDS011;33768;48.578;11.574;2022-12-18T07:59:17;31.10;;;14.53;;
48002;SDS011;33768;48.578;11.574;2022-12-18T08:02:22;32.50;;;15.40;;
48002;SDS011;33768;48.578;11.574;2022-12-18T08:05:26;34.27;;;16.70;;
48002;SDS011;33768;48.578;11.574;2022-12-18T08:08:31;29.97;;;14.30;;
48002;SDS011;33768;48.578;11.574;2022-12-18T08:11:36;29.13;;;13.63;;
48002;SDS011;33768;48.578;11.574;2022-12-18T08:14:40;32.60;;;14.10;;
48002;SDS011;33768;48.578;11.574;2022-12-18T08:17:44;30.87;;;14.80;;
48002;SDS011;33768;48.578;11.574;2022-12-18T08:20:49;34.37;;;14.53;;
48002;SDS011;33768;48.578;11.574;2022-12-18T08:23:53;31.10;;;15.67;;
48002;SDS011;33768;48.578;11.574;2022-12-18T08:26:59;34.53;;;14.60;;
48002;SDS011;33768;48.578;11.574;2022-12-18T08:30:04;37.43;;;15.13;;
48002;SDS011;33768;48.578;11.574;2022-12-18T08:33:09;31.80;;;15.40;;
48002;SDS011;33768;48.578;11.574;2022-12-18T08:36:14;29.53;;;13.50;;
48002;SDS011;33768;48.578;11.574;2022-12-18T08:39:18;30.37;;;15.17;;
48002;SDS011;33768;48.578;11.574;2022-12-18T08:42:24;26.97;;;13.47;;
48002;SDS011;33768;48.578;11.574;2022-12-18T08:45:50;35.43;;;14.57;;
48002;SDS011;33768;48.578;11.574;2022-12-18T08:48:55;33.20;;;14.63;;
48002;SDS011;33768;48.578;11.574;2022-12-18T08:51:59;28.67;;;13.63;;
48002;SDS011;33768;48.578;11.574;2022-12-18T08:55:05;29.53;;;14.13;;
48002;SDS011;33768;48.578;11.574;2022-12-18T08:58:10;35.23;;;13.97;;
48002;SDS011;33768;48.578;11.574;2022-12-18T09:01:14;28.73;;;12.43;;
48002;SDS011;33768;48.578;11.574;2022-12-18T09:04:19;31.53;;;14.40;;
48002;SDS011;33768;48.578;11.574;2022-12-18T09:07:23;29.47;;;14.03;;
48002;SDS011;33768;48.578;11.574;2022-12-18T09:10:27;28.80;;;13.50;;
48002;SDS011;33768;48.578;11.574;2022-12-18T09:13:32;31.00;;;14.27;;
48002;SDS011;33768;48.578;11.574;2022-12-18T09:16:36;29.43;;;14.40;;
48002;SDS011;33768;48.578;11.574;2022-12-18T09:19:40;27.67;;;13.43;;
48002;SDS011;33768;48.578;11.574;2022-12-18T09:22:44;28.30;;;13.03;;
48002;SDS011;33768;48.578;11.574;2022-12-18T09:25:48;35.93;;;15.77;;
48002;SDS011;33768;48.578;11.574;2022-12-18T09:28:53;30.40;;;13.93;;
48002;SDS011;33768;48.578;11.574;2022-12-18T09:31:58;29.73;;;15.10;;
48002;SDS011;33768;48.578;11.574;2022-12-18T09:35:03;33.10;;;14.87;;
48002;SDS011;33768;48.578;11.574;2022-12-18T09:38:08;32.53;;;14.17;;
48002;SDS011;33768;48.578;11.574;2022-12-18T09:41:17;29.30;;;14.33;;
48002;SDS011;33768;48.578;11.574;2022-12-18T09:44:35;30.10;;;13.80;;
48002;SDS011;33768;48.578;11.574;2022-12-18T09:47:45;27.50;;;12.73;;
48002;SDS011;33768;48.578;11.574;2022-12-18T09:50:53;26.90;;;12.40;;
48002;SDS011;33768;48.578;11.574;2022-12-18T09:54:06;30.13;;;13.97;;
48002;SDS011;33768;48.578;11.574;2022-12-18T09:57:20;30.00;;;14.63;;
48002;SDS011;33768;48.578;11.574;2022-12-18T10:00:26;32.93;;;14.90;;
48002;SDS011;33768;48.578;11.574;2022-12-18T10:03:31;26.73;;;13.57;;
48002;SDS011;33768;48.578;11.574;2022-12-18T10:09:50;30.77;;;15.17;;
48002;SDS011;33768;48.578;11.574;2022-12-18T10:16:24;32.33;;;15.00;;
48002;SDS011;33768;48.578;11.574;2022-12-18T10:22:55;28.57;;;13.37;;
48002;SDS011;33768;48.578;11.574;2022-12-18T10:26:08;30.60;;;14.00;;
48002;SDS011;33768;48.578;11.574;2022-12-18T10:29:15;30.17;;;14.50;;
48002;SDS011;33768;48.578;11.574;2022-12-18T10:32:25;31.13;;;15.50;;
48002;SDS011;33768;48.578;11.574;2022-12-18T10:35:31;33.00;;;15.47;;
48002;SDS011;33768;48.578;11.574;2022-12-18T10:38:38;31.17;;;14.73;;
48002;SDS011;33768;48.578;11.574;2022-12-18T10:41:42;34.97;;;15.43;;
48002;SDS011;33768;48.578;11.574;2022-12-18T10:44:46;28.60;;;14.50;;
48002;SDS011;33768;48.578;11.574;2022-12-18T10:48:19;32.03;;;15.20;;
48002;SDS011;33768;48.578;11.574;2022-12-18T10:54:40;30.47;;;14.87;;
48002;SDS011;33768;48.578;11.574;2022-12-18T10:57:54;29.50;;;14.97;;
48002;SDS011;33768;48.578;11.574;2022-12-18T11:04:16;31.90;;;15.17;;
48002;SDS011;33768;48.578;11.574;2022-12-18T11:07:47;33.67;;;16.17;;
48002;SDS011;33768;48.578;11.574;2022-12-18T11:10:53;26.57;;;13.30;;
48002;SDS011;33768;48.578;11.574;2022-12-18T11:17:20;26.50;;;12.43;;
48002;SDS011;33768;48.578;11.574;2022-12-18T11:20:32;29.93;;;13.37;;
48002;SDS011;33768;48.578;11.574;2022-12-18T11:23:45;26.17;;;13.40;;
48002;SDS011;33768;48.578;11.574;2022-12-18T11:26:53;28.10;;;14.63;;
48002;SDS011;33768;48.578;11.574;2022-12-18T11:33:36;24.87;;;13.07;;
48002;SDS011;33768;48.578;11.574;2022-12-18T11:36:46;26.57;;;13.87;;
48002;SDS011;33768;48.578;11.574;2022-12-18T11:39:56;24.33;;;12.73;;
48002;SDS011;33768;48.578;11.574;2022-12-18T11:43:18;24.23;;;12.73;;
48002;SDS011;33768;48.578;11.574;2022-12-18T11:46:32;23.93;;;13.10;;
48002;SDS011;33768;48.578;11.574;2022-12-18T11:49:40;25.83;;;12.20;;
48002;SDS011;33768;48.578;11.574;2022-12-18T11:52:45;25.97;;;14.17;;
48002;SDS011;33768;48.578;11.574;2022-12-18T11:55:59;25.63;;;13.73;;
48002;SDS011;33768;48.578;11.574;2022-12-18T12:06:13;25.33;;;14.17;;
48002;SDS011;33768;48.578;11.574;2022-12-18T12:09:29;26.20;;;14.47;;
48002;SDS011;33768;48.578;11.574;2022-12-18T12:15:57;26.67;;;13.90;;
48002;SDS011;33768;48.578;11.574;2022-12-18T12:19:15;23.77;;;13.77;;
48002;SDS011;33768;48.578;11.574;2022-12-18T12:22:47;24.87;;;13.13;;
48002;SDS011;33768;48.578;11.574;2022-12-18T12:26:27;27.90;;;14.50;;
48002;SDS011;33768;48.578;11.574;2022-12-18T12:33:40;24.57;;;13.87;;
48002;SDS011;33768;48.578;11.574;2022-12-18T12:36:51;27.03;;;12.93;;
48002;SDS011;33768;48.578;11.574;2022-12-18T12:39:56;28.47;;;14.03;;
48002;SDS011;33768;48.578;11.574;2022-12-18T12:43:05;25.20;;;14.03;;
48002;SDS011;33768;48.578;11.574;2022-12-18T12:46:25;28.23;;;13.37;;
48002;SDS011;33768;48.578;11.574;2022-12-18T12:49:31;23.53;;;12.87;;
48002;SDS011;33768;48.578;11.574;2022-12-18T12:52:42;26.73;;;14.27;;
48002;SDS011;33768;48.578;11.574;2022-12-18T12:55:53;26.17;;;13.37;;
48002;SDS011;33768;48.578;11.574;2022-12-18T12:59:04;26.90;;;12.43;;
48002;SDS011;33768;48.578;11.574;2022-12-18T13:02:28;25.37;;;13.03;;
48002;SDS011;33768;48.578;11.574;2022-12-18T13:05:45;27.80;;;14.23;;
48002;SDS011;33768;48.578;11.574;2022-12-18T13:09:12;29.33;;;14.30;;
48002;SDS011;33768;48.578;11.574;2022-12-18T13:12:17;26.90;;;14.37;;
48002;SDS011;33768;48.578;11.574;2022-12-18T13:18:52;30.63;;;15.47;;
48002;SDS011;33768;48.578;11.574;2022-12-18T13:22:00;32.10;;;14.83;;
48002;SDS011;33768;48.578;11.574;2022-12-18T13:41:29;28.90;;;13.57;;
48002;SDS011;33768;48.578;11.574;2022-12-18T13:44:38;29.67;;;14.90;;
48002;SDS011;33768;48.578;11.574;2022-12-18T13:47:47;29.33;;;14.90;;
48002;SDS011;33768;48.578;11.574;2022-12-18T13:50:53;31.97;;;15.67;;
48002;SDS011;33768;48.578;11.574;2022-12-18T13:54:02;27.47;;;14.33;;
48002;SDS011;33768;48.578;11.574;2022-12-18T13:57:28;30.50;;;14.50;;
48002;SDS011;33768;48.578;11.574;2022-12-18T14:00:43;31.77;;;13.90;;
48002;SDS011;33768;48.578;11.574;2022-12-18T14:03:48;45.20;;;20.07;;
48002;SDS011;33768;48.578;11.574;2022-12-18T14:06:54;40.40;;;19.17;;
48002;SDS011;33768;48.578;11.574;2022-12-18T14:10:11;31.57;;;15.70;;
48002;SDS011;33768;48.578;11.574;2022-12-18T14:13:21;29.47;;;14.07;;
48002;SDS011;33768;48.578;11.574;2022-12-18T14:16:30;30.70;;;14.50;;
48002;SDS011;33768;48.578;11.574;2022-12-18T14:19:35;29.70;;;14.77;;
48002;SDS011;33768;48.578;11.574;2022-12-18T14:22:42;25.57;;;13.40;;
48002;SDS011;33768;48.578;11.574;2022-12-18T14:25:48;25.53;;;13.00;;
48002;SDS011;33768;48.578;11.574;2022-12-18T14:28:53;27.20;;;13.33;;
48002;SDS011;33768;48.578;11.574;2022-12-18T14:32:14;25.77;;;13.10;;
48002;SDS011;33768;48.578;11.574;2022-12-18T14:35:21;28.73;;;13.30;;
48002;SDS011;33768;48.578;11.574;2022-12-18T14:38:32;28.57;;;13.37;;
48002;SDS011;33768;48.578;11.574;2022-12-18T14:41:39;26.60;;;12.97;;
48002;SDS011;33768;48.578;11.574;2022-12-18T14:44:43;28.17;;;13.97;;
48002;SDS011;33768;48.578;11.574;2022-12-18T14:47:48;28.70;;;13.90;;
48002;SDS011;33768;48.578;11.574;2022-12-18T14:51:34;28.80;;;14.40;;
48002;SDS011;33768;48.578;11.574;2022-12-18T14:54:22;24.63;;;12.67;;
48002;SDS011;33768;48.578;11.574;2022-12-18T14:57:32;33.00;;;15.00;;
48002;SDS011;33768;48.578;11.574;2022-12-18T15:00:41;31.60;;;15.60;;
48002;SDS011;33768;48.578;11.574;2022-12-18T15:03:46;32.23;;;16.27;;
48002;SDS011;33768;48.578;11.574;2022-12-18T15:07:02;42.17;;;19.40;;
48002;SDS011;33768;48.578;11.574;2022-12-18T15:10:14;38.90;;;18.73;;
48002;SDS011;33768;48.578;11.574;2022-12-18T15:13:28;32.80;;;16.30;;
48002;SDS011;33768;48.578;11.574;2022-12-18T15:16:32;27.77;;;14.20;;
48002;SDS011;33768;48.578;11.574;2022-12-18T15:19:38;28.33;;;14.40;;
48002;SDS011;33768;48.578;11.574;2022-12-18T15:22:45;25.73;;;14.37;;
48002;SDS011;33768;48.578;11.574;2022-12-18T15:26:02;25.93;;;13.53;;
48002;SDS011;33768;48.578;11.574;2022-12-18T15:29:19;26.50;;;15.33;;
48002;SDS011;33768;48.578;11.574;2022-12-18T15:32:26;27.00;;;14.90;;
48002;SDS011;33768;48.578;11.574;2022-12-18T15:35:30;30.00;;;14.73;;
48002;SDS011;33768;48.578;11.574;2022-12-18T15:38:35;30.20;;;14.77;;
48002;SDS011;33768;48.578;11.574;2022-12-18T15:41:39;29.10;;;14.97;;
48002;SDS011;33768;48.578;11.574;2022-12-18T15:44:43;29.63;;;15.10;;
48002;SDS011;33768;48.578;11.574;2022-12-18T15:47:48;31.40;;;15.40;;
48002;SDS011;33768;48.578;11.574;2022-12-18T15:50:53;33.27;;;15.33;;
48002;SDS011;33768;48.578;11.574;2022-12-18T15:54:01;30.17;;;15.47;;
48002;SDS011;33768;48.578;11.574;2022-12-18T15:57:10;27.60;;;14.60;;
48002;SDS011;33768;48.578;11.574;2022-12-18T16:00:27;33.60;;;15.63;;
48002;SDS011;33768;48.578;11.574;2022-12-18T16:03:31;36.50;;;17.10;;
48002;SDS011;33768;48.578;11.574;2022-12-18T16:06:36;29.43;;;14.53;;
48002;SDS011;33768;48.578;11.574;2022-12-18T16:09:40;32.60;;;16.37;;
48002;SDS011;33768;48.578;11.574;2022-12-18T16:12:45;33.17;;;15.13;;
48002;SDS011;33768;48.578;11.574;2022-12-18T16:15:50;34.83;;;16.13;;
48002;SDS011;33768;48.578;11.574;2022-12-18T16:18:53;34.00;;;16.50;;
48002;SDS011;33768;48.578;11.574;2022-12-18T16:21:57;34.80;;;15.77;;
48002;SDS011;33768;48.578;11.574;2022-12-18T16:25:02;31.77;;;14.63;;
48002;SDS011;33768;48.578;11.574;2022-12-18T16:28:08;30.03;;;15.33;;
48002;SDS011;33768;48.578;11.574;2022-12-18T16:31:12;33.47;;;16.33;;
48002;SDS011;33768;48.578;11.574;2022-12-18T16:34:20;31.73;;;15.67;;
48002;SDS011;33768;48.578;11.574;2022-12-18T16:37:27;36.17;;;15.47;;
48002;SDS011;33768;48.578;11.574;2022-12-18T16:40:31;33.73;;;16.50;;
48002;SDS011;33768;48.578;11.574;2022-12-18T16:43:37;29.63;;;14.83;;
48002;SDS011;33768;48.578;11.574;2022-12-18T16:46:41;33.70;;;15.33;;
48002;SDS011;33768;48.578;11.574;2022-12-18T16:49:52;34.63;;;15.50;;
48002;SDS011;33768;48.578;11.574;2022-12-18T16:52:56;29.40;;;14.63;;
48002;SDS011;33768;48.578;11.574;2022-12-18T16:56:00;29.53;;;14.40;;
48002;SDS011;33768;48.578;11.574;2022-12-18T16:59:05;33.20;;;14.93;;
48002;SDS011;33768;48.578;11.574;2022-12-18T17:02:16;30.97;;;15.00;;
48002;SDS011;33768;48.578;11.574;2022-12-18T17:05:26;28.40;;;14.67;;
48002;SDS011;33768;48.578;11.574;2022-12-18T17:08:30;35.73;;;15.57;;
48002;SDS011;33768;48.578;11.574;2022-12-18T17:11:35;29.57;;;15.43;;
48002;SDS011;33768;48.578;11.574;2022-12-18T17:14:40;34.63;;;15.97;;
48002;SDS011;33768;48.578;11.574;2022-12-18T17:17:44;31.40;;;16.60;;
48002;SDS011;33768;48.578;11.574;2022-12-18T17:20:48;37.53;;;16.10;;
48002;SDS011;33768;48.578;11.574;2022-12-18T17:23:53;29.80;;;13.97;;
48002;SDS011;33768;48.578;11.574;2022-12-18T17:26:57;30.23;;;14.60;;
48002;SDS011;33768;48.578;11.574;2022-12-18T17:30:02;30.00;;;15.60;;
48002;SDS011;33768;48.578;11.574;2022-12-18T17:33:07;31.07;;;15.53;;
48002;SDS011;33768;48.578;11.574;2022-12-18T17:36:11;31.70;;;15.53;;
48002;SDS011;33768;48.578;11.574;2022-12-18T17:39:17;31.47;;;16.00;;
48002;SDS011;33768;48.578;11.574;2022-12-18T17:42:23;30.83;;;15.37;;
48002;SDS011;33768;48.578;11.574;2022-12-18T17:45:27;29.53;;;15.57;;
48002;SDS011;33768;48.578;11.574;2022-12-18T17:48:32;32.90;;;16.23;;
48002;SDS011;33768;48.578;11.574;2022-12-18T17:51:36;33.50;;;16.77;;
48002;SDS011;33768;48.578;11.574;2022-12-18T17:54:40;36.10;;;17.67;;
48002;SDS011;33768;48.578;11.574;2022-12-18T17:57:46;36.13;;;17.23;;
48002;SDS011;33768;48.578;11.574;2022-12-18T18:00:50;35.73;;;17.27;;
48002;SDS011;33768;48.578;11.574;2022-12-18T18:03:55;35.93;;;16.93;;
48002;SDS011;33768;48.578;11.574;2022-12-18T18:06:59;36.27;;;17.50;;
48002;SDS011;33768;48.578;11.574;2022-12-18T18:10:04;38.40;;;18.47;;
48002;SDS011;33768;48.578;11.574;2022-12-18T18:13:19;39.90;;;17.60;;
48002;SDS011;33768;48.578;11.574;2022-12-18T18:16:44;36.10;;;17.00;;
48002;SDS011;33768;48.578;11.574;2022-12-18T18:19:51;35.97;;;18.53;;
48002;SDS011;33768;48.578;11.574;2022-12-18T18:22:55;38.07;;;17.77;;
48002;SDS011;33768;48.578;11.574;2022-12-18T18:26:03;33.87;;;17.27;;
48002;SDS011;33768;48.578;11.574;2022-12-18T18:29:10;41.97;;;18.80;;
48002;SDS011;33768;48.578;11.574;2022-12-18T18:32:18;39.77;;;17.63;;
48002;SDS011;33768;48.578;11.574;2022-12-18T18:35:22;40.37;;;18.17;;
48002;SDS011;33768;48.578;11.574;2022-12-18T18:38:27;40.47;;;18.37;;
48002;SDS011;33768;48.578;11.574;2022-12-18T18:41:31;36.50;;;16.83;;
48002;SDS011;33768;48.578;11.574;2022-12-18T18:44:36;36.63;;;16.40;;
48002;SDS011;33768;48.578;11.574;2022-12-18T18:47:40;38.67;;;18.33;;
48002;SDS011;33768;48.578;11.574;2022-12-18T18:50:53;38.57;;;18.33;;
48002;SDS011;33768;48.578;11.574;2022-12-18T18:53:58;40.17;;;19.43;;
48002;SDS011;33768;48.578;11.574;2022-12-18T18:57:03;37.07;;;17.10;;
48002;SDS011;33768;48.578;11.574;2022-12-18T19:00:08;34.80;;;18.30;;
48002;SDS011;33768;48.578;11.574;2022-12-18T19:03:13;38.27;;;18.83;;
48002;SDS011;33768;48.578;11.574;2022-12-18T19:06:19;38.77;;;17.50;;
48002;SDS011;33768;48.578;11.574;2022-12-18T19:09:26;40.23;;;19.13;;
48002;SDS011;33768;48.578;11.574;2022-12-18T19:12:31;41.30;;;19.07;;
48002;SDS011;33768;48.578;11.574;2022-12-18T19:16:01;42.53;;;18.20;;
48002;SDS011;33768;48.578;11.574;2022-12-18T19:19:10;38.63;;;18.97;;
48002;SDS011;33768;48.578;11.574;2022-12-18T19:22:15;36.70;;;17.83;;
48002;SDS011;33768;48.578;11.574;2022-12-18T19:25:20;41.90;;;19.37;;